地図

経路データ

SID SEASON NUMBER BASIN SUBBASIN NAME ISO_TIME NATURE LAT LON WMO_WIND WMO_PRES WMO_AGENCY TRACK_TYPE DIST2LAND LANDFALL IFLAG USA_AGENCY USA_ATCF_ID USA_LAT USA_LON USA_RECORD USA_STATUS USA_WIND USA_PRES USA_SSHS USA_R34_NE USA_R34_SE USA_R34_SW USA_R34_NW USA_R50_NE USA_R50_SE USA_R50_SW USA_R50_NW USA_R64_NE USA_R64_SE USA_R64_SW USA_R64_NW USA_POCI USA_ROCI USA_RMW USA_EYE TOKYO_LAT TOKYO_LON TOKYO_GRADE TOKYO_WIND TOKYO_PRES TOKYO_R50_DIR TOKYO_R50_LONG TOKYO_R50_SHORT TOKYO_R30_DIR TOKYO_R30_LONG TOKYO_R30_SHORT TOKYO_LAND CMA_LAT CMA_LON CMA_CAT CMA_WIND CMA_PRES HKO_LAT HKO_LON HKO_CAT HKO_WIND HKO_PRES NEWDELHI_LAT NEWDELHI_LON NEWDELHI_GRADE NEWDELHI_WIND NEWDELHI_PRES NEWDELHI_CI NEWDELHI_DP NEWDELHI_POCI REUNION_LAT REUNION_LON REUNION_TYPE REUNION_WIND REUNION_PRES REUNION_TNUM REUNION_CI REUNION_RMW REUNION_R34_NE REUNION_R34_SE REUNION_R34_SW REUNION_R34_NW REUNION_R50_NE REUNION_R50_SE REUNION_R50_SW REUNION_R50_NW REUNION_R64_NE REUNION_R64_SE REUNION_R64_SW REUNION_R64_NW BOM_LAT BOM_LON BOM_TYPE BOM_WIND BOM_PRES BOM_TNUM BOM_CI BOM_RMW BOM_R34_NE BOM_R34_SE BOM_R34_SW BOM_R34_NW BOM_R50_NE BOM_R50_SE BOM_R50_SW BOM_R50_NW BOM_R64_NE BOM_R64_SE BOM_R64_SW BOM_R64_NW BOM_ROCI BOM_POCI BOM_EYE BOM_POS_METHOD BOM_PRES_METHOD NADI_LAT NADI_LON NADI_CAT NADI_WIND NADI_PRES WELLINGTON_LAT WELLINGTON_LON WELLINGTON_WIND WELLINGTON_PRES DS824_LAT DS824_LON DS824_STAGE DS824_WIND DS824_PRES TD9636_LAT TD9636_LON TD9636_STAGE TD9636_WIND TD9636_PRES TD9635_LAT TD9635_LON TD9635_WIND TD9635_PRES TD9635_ROCI NEUMANN_LAT NEUMANN_LON NEUMANN_CLASS NEUMANN_WIND NEUMANN_PRES MLC_LAT MLC_LON MLC_CLASS MLC_WIND MLC_PRES USA_GUST BOM_GUST BOM_GUST_PER REUNION_GUST REUNION_GUST_PER USA_SEAHGT USA_SEARAD_NE USA_SEARAD_SE USA_SEARAD_SW USA_SEARAD_NW STORM_SPEED STORM_DIR
1979273N11145 1979 96 WP MM ROGER 1979-09-30 00:00:00 NR 11.1000 144.500 main 1497 1497 __________O___ -1 11.1000 144.500 1 3 291
1979273N11145 1979 96 WP MM ROGER 1979-09-30 03:00:00 NR 11.1469 144.375 main 1498 1498 __________P___ -1 11.1469 144.375 1 3 291
1979273N11145 1979 96 WP MM ROGER 1979-09-30 06:00:00 NR 11.1950 144.250 main 1511 1511 __________P___ -1 11.1950 144.250 1 3 292
1979273N11145 1979 96 WP MM ROGER 1979-09-30 09:00:00 NR 11.2456 144.125 main 1515 1515 __________P___ -1 11.2456 144.125 1 3 293
1979273N11145 1979 96 WP MM ROGER 1979-09-30 12:00:00 NR 11.3000 144.000 main 1528 1528 __________O___ -1 11.3000 144.000 1 3 295
1979273N11145 1979 96 WP MM ROGER 1979-09-30 15:00:00 NR 11.3581 143.875 main 1541 1541 __________P___ -1 11.3581 143.875 1 3 295
1979273N11145 1979 96 WP MM ROGER 1979-09-30 18:00:00 NR 11.4150 143.750 main 1544 1544 __________P___ -1 11.4150 143.750 1 3 294
1979273N11145 1979 96 WP MM ROGER 1979-09-30 21:00:00 NR 11.4644 143.625 main 1559 1559 __________P___ -1 11.4644 143.625 1 3 289
1979273N11145 1979 96 WP MM ROGER 1979-10-01 00:00:00 NR 11.5000 143.500 main 1561 1561 __________O___ -1 11.5000 143.500 1 3 279
1979273N11145 1979 96 WP MM ROGER 1979-10-01 03:00:00 NR 11.5063 143.367 main 1564 1564 __________P___ -1 11.5063 143.367 1 3 270
1979273N11145 1979 96 WP MM ROGER 1979-10-01 06:00:00 NR 11.5000 143.235 main 1568 1564 __________P___ -1 11.5000 143.235 1 3 267
1979273N11145 1979 96 WP MM ROGER 1979-10-01 09:00:00 NR 11.4938 143.111 main 1564 1560 __________P___ -1 11.4938 143.111 1 2 270
1979273N11145 1979 96 WP MM ROGER 1979-10-01 12:00:00 NR 11.5000 143.000 main 1560 1560 __________O___ -1 11.5000 143.000 1 2 278
1979273N11145 1979 96 WP MM ROGER 1979-10-01 15:00:00 NR 11.5151 142.951 main 1560 1557 __________P___ -1 11.5151 142.951 1 1 299
1979273N11145 1979 96 WP MM ROGER 1979-10-01 18:00:00 NR 11.5472 142.910 main 1557 1557 __________P___ -1 11.5472 142.910 1 1 309
1979273N11145 1979 96 WP MM ROGER 1979-10-01 21:00:00 NR 11.6057 142.838 main 1564 1564 __________P___ -1 11.6057 142.838 1 7 310
1979273N11145 1979 96 WP MM ROGER 1979-10-02 00:00:00 TS 11.9714 142.400 main 1592 1589 O_O______OO___ jtwc_wp WP211979 11.7000 142.700 20 -1 13.6000 140.600 1 23 1001 11.7000 142.700 TC 20 11.7000 142.700 1 20 10 309
1979273N11145 1979 96 WP MM ROGER 1979-10-02 03:00:00 TS 12.2203 142.052 main 1605 1602 P_P______PP___ WP211979 11.8500 142.413 20 -1 13.8125 140.550 1 26 1001 11.8500 142.413 TC 20 11.7946 142.443 1 20 8 306
1979273N11145 1979 96 WP MM ROGER 1979-10-02 06:00:00 TS 12.4401 141.736 main 1611 1611 O_O______OP___ jtwc_wp WP211979 12.0000 142.100 20 -1 14.0000 140.500 1 29 1001 12.0000 142.100 TC 20 11.9303 142.117 1 20 7 305
1979273N11145 1979 96 WP MM ROGER 1979-10-02 09:00:00 TS 12.6502 141.427 main 1629 1625 P_P______PP___ WP211979 12.1625 141.750 20 -1 14.1500 140.450 1 29 1000 12.1625 141.750 TC 20 12.1258 141.758 1 20 7 307
1979273N11145 1979 96 WP MM ROGER 1979-10-02 12:00:00 TS 12.8750 141.150 main 1642 1638 O_O______OO___ jtwc_wp WP211979 12.4000 141.400 20 -1 14.3000 140.400 1 29 1000 12.4000 141.400 TC 20 12.4000 141.400 1 20 7 316
1979273N11145 1979 96 WP MM ROGER 1979-10-02 15:00:00 TS 13.1768 140.909 main 1660 1642 P_P______PP___ WP211979 12.7549 141.092 22 -1 14.5075 140.350 1 29 1000 12.7549 141.092 TC 22 12.6897 141.100 1 22 8 325
1979273N11145 1979 96 WP MM ROGER 1979-10-02 18:00:00 TS 13.5419 140.676 main 1643 1625 O_O______OP___ jtwc_wp WP211979 13.2000 140.800 25 -1 14.7000 140.300 1 29 1000 13.2000 140.800 TC 25 13.0676 140.806 1 25 8 328
1979273N11145 1979 96 WP MM ROGER 1979-10-02 21:00:00 TS 13.8860 140.456 main 1629 1605 P_P______PP___ WP211979 13.6175 140.500 27 -1 14.7473 140.317 1 29 1000 13.6175 140.500 TC 27 13.5616 140.509 1 27 10 331
1979273N11145 1979 96 WP MM ROGER 1979-10-03 00:00:00 TS 14.3750 140.200 main 1608 1588 O_O______OO___ jtwc_wp WP211979 14.2000 140.200 30 -1 14.9000 140.200 1 29 1000 14.2000 140.200 TC 30 14.2000 140.200 1 30 14 336
1979273N11145 1979 96 WP MM ROGER 1979-10-03 03:00:00 TS 15.1486 139.884 main 1589 1568 P_P______PP___ WP211979 15.0825 139.915 30 -1 15.3750 139.798 1 29 999 15.0825 139.915 TC 30 15.0544 139.909 1 30 18 339
1979273N11145 1979 96 WP MM ROGER 1979-10-03 06:00:00 TS 16.0268 139.529 main 1568 1558 O_OO_____OP___ jtwc_wp WP211979 16.1000 139.600 30 -1 16.0000 139.200 1 29 998 15.5000 140.000 TD 25 998 16.1000 139.600 TC 30 16.0391 139.597 1 30 18 337
1979273N11145 1979 96 WP MM ROGER 1979-10-03 09:00:00 TS 16.8373 139.150 main 1552 1537 P_PP_____PP___ WP211979 17.0873 139.245 30 -1 16.5851 138.522 1 29 997 15.9077 139.852 TD 25 998 17.0873 139.245 TC 30 17.0543 139.236 1 30 19 332
1979273N11145 1979 96 WP MM ROGER 1979-10-03 12:00:00 TS 17.6800 138.630 998 tokyo main 1535 1518 OOOO_____OO___ jtwc_wp WP211979 18.0000 138.800 30 -1 19.0000 137.000 2 998 0 0 0 17.2000 137.800 1 29 997 16.6000 139.600 TD 25 998 18.0000 138.800 TC 30 18.0000 138.800 1 30 19 328
1979273N11145 1979 96 WP MM ROGER 1979-10-03 15:00:00 TS 18.4668 138.066 main 1523 1484 PPPP_____PP___ WP211979 18.7524 138.237 30 -1 19.3801 136.803 2 998 0 0 17.8275 137.112 1 29 996 17.7393 139.142 TD 25 998 18.7524 138.237 TC 30 18.8059 138.231 1 31 20 324
1979273N11145 1979 96 WP MM ROGER 1979-10-03 18:00:00 TS 19.2467 137.416 998 tokyo main 1479 1382 OOOO_____OP___ jtwc_wp WP211979 19.4000 137.600 30 -1 19.8000 136.600 2 998 0 0 0 18.5000 136.500 1 29 995 19.0000 138.400 TD 25 998 19.4000 137.600 TC 30 19.5184 137.590 1 32 20 320
1979273N11145 1979 96 WP MM ROGER 1979-10-03 21:00:00 TS 19.9814 136.732 main 1367 1290 PPPP_____PP___ WP211979 20.0600 136.935 32 -1 20.2724 136.380 2 995 0 0 19.2573 135.997 1 33 992 20.1172 137.216 TD 27 996 20.0600 136.935 TC 32 20.1216 136.928 1 33 18 317
1979273N11145 1979 96 WP MM ROGER 1979-10-04 00:00:00 TS 20.5667 136.117 40 992 tokyo main 1280 1233 OOOO_____OO___ jtwc_wp WP211979 20.6000 136.300 35 0 20.7000 136.100 3 40 992 0 9 100 100 0 20.0000 135.600 2 38 990 20.9000 136.100 TD 30 995 20.6000 136.300 TC 35 20.6000 136.300 2 35 14 314
1979273N11145 1979 96 WP MM ROGER 1979-10-04 03:00:00 TS 20.9656 135.653 main 1223 1186 PPPP_____PP___ WP211979 20.9672 135.769 37 0 21.0175 135.730 3 40 988 0 9 100 100 20.6822 135.292 2 38 986 21.1109 135.642 TD 32 990 20.9672 135.769 TC 37 21.0485 135.712 2 36 10 308
1979273N11145 1979 96 WP MM ROGER 1979-10-04 06:00:00 TS 21.2108 135.246 40 985 tokyo main 1182 1147 OOOO_____OP___ jtwc_wp WP211979 21.2000 135.300 40 0 21.2000 135.300 3 40 985 0 9 100 100 0 21.2000 135.000 2 38 982 21.1000 135.400 TS 35 985 21.2000 135.300 TC 40 21.3648 135.176 2 37 9 300
1979273N11145 1979 96 WP MM ROGER 1979-10-04 09:00:00 TS 21.4201 134.806 main 1147 1123 PPPP_____PP___ WP211979 21.4323 134.843 40 0 21.2599 134.857 3 40 985 0 9 100 100 21.5276 134.593 2 38 983 21.3449 134.973 TS 35 985 21.4323 134.843 TC 40 21.5237 134.728 2 38 8 288
1979273N11145 1979 96 WP MM ROGER 1979-10-04 12:00:00 TS 21.4667 134.383 40 985 tokyo main 1123 1119 OOOO_____OO___ jtwc_wp WP211979 21.5000 134.400 40 0 21.2000 134.400 3 40 985 0 9 100 100 0 21.6000 134.200 2 38 985 21.5000 134.500 TS 35 985 21.5000 134.400 TC 40 21.5000 134.400 2 40 8 262
1979273N11145 1979 96 WP MM ROGER 1979-10-04 15:00:00 TS 21.2987 133.905 main 1129 1126 PPPP_____PP___ WP211979 21.3552 133.829 42 0 21.1027 133.845 3 42 985 0 9 100 100 21.4324 133.867 2 38 987 21.3979 133.894 TS 37 987 21.3552 133.829 TC 42 21.1487 134.166 2 41 9 234
1979273N11145 1979 96 WP MM ROGER 1979-10-04 18:00:00 TS 20.9577 133.627 45 985 tokyo main 1153 1153 OOOO_____OP___ jtwc_wp WP211979 21.0000 133.500 45 0 20.9000 133.500 3 45 985 0 9 100 100 0 21.1000 133.700 2 38 990 21.1000 133.500 TS 40 990 21.0000 133.500 TC 45 20.6462 134.060 2 42 9 190
1979273N11145 1979 96 WP MM ROGER 1979-10-04 21:00:00 TS 20.4533 133.740 main 1210 1210 PPPP_____PP___ WP211979 20.3824 133.709 45 0 20.5196 133.593 3 42 988 0 9 150 150 20.6674 133.761 2 38 991 20.5971 133.594 TS 40 990 20.3824 133.709 TC 45 20.1707 134.074 2 43 10 153
1979273N11145 1979 96 WP MM ROGER 1979-10-05 00:00:00 TS 20.0833 134.100 40 992 tokyo main 1242 1242 OOOO_____OO___ jtwc_wp WP211979 19.9000 134.200 45 0 20.2000 134.000 3 40 992 0 9 200 200 0 20.4000 134.000 2 38 992 20.2000 134.000 TS 40 990 19.9000 134.200 TC 45 19.9000 134.200 2 45 9 112
1979273N11145 1979 96 WP MM ROGER 1979-10-05 03:00:00 TS 20.1312 134.579 main 1278 1259 PPPP_____PP___ WP211979 19.9279 134.729 45 0 20.1082 134.600 3 40 992 0 9 200 200 20.5728 134.364 2 38 992 20.2080 134.550 TS 40 990 19.9279 134.729 TC 45 20.0426 134.500 2 45 10 67
1979273N11145 1979 96 WP MM ROGER 1979-10-05 06:00:00 TS 20.4682 135.048 40 992 tokyo main 1249 1217 OOOO_____OP___ jtwc_wp WP211979 20.3000 135.200 45 0 20.3000 135.200 3 40 992 0 9 200 200 0 21.0000 134.700 2 38 992 20.5000 135.100 TS 40 990 20.3000 135.200 TC 45 20.4089 134.891 2 45 11 40
1979273N11145 1979 96 WP MM ROGER 1979-10-05 09:00:00 TS 20.9649 135.323 main 1207 1159 PPPP_____PP___ WP211979 20.8323 135.440 45 0 20.7947 135.532 3 40 992 0 9 200 200 21.4774 134.810 2 38 992 20.9323 135.454 TS 40 990 20.8323 135.440 TC 45 20.9206 135.261 2 45 12 18
1979273N11145 1979 96 WP MM ROGER 1979-10-05 12:00:00 TS 21.5833 135.433 40 992 tokyo main 1149 1097 OOOO_____OO___ jtwc_wp WP211979 21.5000 135.500 45 0 21.5000 135.700 3 40 992 0 9 200 200 0 22.0000 134.800 2 38 992 21.5000 135.600 TS 40 990 21.5000 135.500 TC 45 21.5000 135.500 2 45 12 4
1979273N11145 1979 96 WP MM ROGER 1979-10-05 15:00:00 TS 22.1827 135.412 main 1087 1022 PPPP_____PP___ WP211979 22.1649 135.468 45 0 22.2348 135.847 3 40 992 0 9 200 200 22.4500 134.758 2 38 992 22.0849 135.533 TS 40 990 22.1649 135.468 TC 45 21.9965 135.398 2 45 12 352
1979273N11145 1979 96 WP MM ROGER 1979-10-05 18:00:00 TS 22.7909 135.260 40 992 tokyo main 1022 958 OOOO_____OP___ jtwc_wp WP211979 22.8000 135.300 45 0 23.0000 135.800 3 40 992 0 9 200 200 0 22.9000 134.700 2 38 992 22.7000 135.300 TS 40 990 22.8000 135.300 TC 45 22.5455 135.158 2 45 12 342
1979273N11145 1979 96 WP MM ROGER 1979-10-05 21:00:00 TS 23.3605 134.985 main 948 889 PPPP_____PP___ WP211979 23.2927 135.008 45 0 23.7680 135.372 3 40 992 0 9 200 200 23.3550 134.670 2 38 992 23.3077 134.963 TS 40 991 23.2927 135.008 TC 45 23.1467 134.889 2 45 12 338
1979273N11145 1979 96 WP MM ROGER 1979-10-06 00:00:00 TS 23.9333 134.750 40 992 tokyo main 889 825 OOOO_____OO___ jtwc_wp WP211979 23.8000 134.700 45 0 24.4000 135.000 3 40 992 0 9 200 200 0 23.9000 134.700 2 38 992 23.9000 134.700 TS 40 992 23.8000 134.700 TC 45 23.8000 134.700 2 45 12 348
1979273N11145 1979 96 WP MM ROGER 1979-10-06 03:00:00 TS 24.5049 134.710 main 825 771 PPPP_____PP___ WP211979 24.4548 134.439 45 0 24.6776 135.167 3 40 992 0 9 200 200 24.6050 134.813 2 38 992 24.4273 134.710 TS 40 992 24.4548 134.439 TC 45 24.4101 134.692 2 45 12 4
1979273N11145 1979 96 WP MM ROGER 1979-10-06 06:00:00 TS 25.1470 134.831 40 992 tokyo main 771 716 OOOO_____OP___ jtwc_wp WP211979 25.2000 134.400 45 0 25.0000 135.500 3 40 992 0 9 200 200 0 25.4000 135.000 2 38 992 25.0000 134.900 TS 40 992 25.2000 134.400 TC 45 25.0822 134.789 2 45 14 14
1979273N11145 1979 96 WP MM ROGER 1979-10-06 09:00:00 TS 25.8890 135.093 main 711 652 PPPP_____PP___ WP211979 25.9329 134.760 45 0 25.7600 135.658 3 42 992 0 9 225 225 26.1624 135.213 2 38 992 25.6827 135.177 TS 40 992 25.9329 134.760 TC 45 25.8631 134.991 2 45 17 19
1979273N11145 1979 96 WP MM ROGER 1979-10-06 12:00:00 TS 26.7667 135.450 45 992 tokyo main 649 585 OOOO_____OO___ jtwc_wp WP211979 26.8000 135.300 45 0 26.7000 135.800 3 45 992 0 9 250 250 0 27.0000 135.500 2 38 992 26.5000 135.500 TS 40 992 26.8000 135.300 TC 45 26.8000 135.300 2 45 20 18
1979273N11145 1979 96 WP MM ROGER 1979-10-06 15:00:00 TS 27.7530 135.758 main 584 502 PPPP_____PP___ WP211979 27.8523 135.729 42 0 27.5025 135.964 3 45 992 0 9 275 200 27.9549 135.856 2 38 992 27.3873 135.722 TS 40 992 27.8523 135.729 TC 42 27.9688 135.548 2 42 23 16
1979273N11145 1979 96 WP MM ROGER 1979-10-06 18:00:00 TS 28.9322 136.143 45 992 tokyo main 502 363 OOOO_____OP___ jtwc_wp WP211979 29.1000 136.200 40 0 28.5000 136.200 3 45 992 0 3 300 150 0 29.0000 136.300 2 38 992 28.5000 136.000 TS 40 992 29.1000 136.200 TC 40 29.2851 135.923 2 40 27 16
1979273N11145 1979 96 WP MM ROGER 1979-10-06 21:00:00 TS 30.3224 136.612 main 353 239 PPPP_____PP___ WP211979 30.5404 136.669 37 0 29.9694 136.504 3 45 992 0 3 300 150 30.1070 136.791 2 38 992 29.9132 136.442 TS 40 992 30.5404 136.669 TC 37 30.6593 136.511 2 37 29 20
1979273N11145 1979 96 WP MM ROGER 1979-10-07 00:00:00 TS 31.6833 137.289 45 992 tokyo main 235 200 OOOO_____OO___ jtwc_wp WP211979 32.0000 137.400 35 0 31.5000 137.000 3 45 992 0 3 300 150 0 31.2000 137.400 2 38 992 31.5000 137.000 TS 40 992 32.0000 137.400 TC 35 32.0000 137.400 2 35 28 29
1979273N11145 1979 96 WP MM ROGER 1979-10-07 03:00:00 TS 32.8152 138.204 main 200 104 PPP______PP___ WP211979 33.2702 138.598 32 -1 32.7487 137.715 3 992 0 3 32.2156 138.082 2 38 992 TS 33.2702 138.598 TC 32 33.2377 138.640 2 32 26 38
1979273N11145 1979 96 WP MM ROGER 1979-10-07 06:00:00 MX 33.7300 139.210 992 tokyo main 106 95 OOO______OO___ jtwc_wp WP211979 34.4000 140.100 30 -1 33.7000 138.700 6 992 0 0 0 33.1000 139.000 2 38 993 34.4000 140.100 TC 30 34.4000 140.100 1 30 20 51
1979273N11145 1979 96 WP MM ROGER 1979-10-07 09:00:00 MX 34.0642 140.038 main 89 86 _PP___________ WP211979 -1 34.1928 139.934 6 992 0 0 33.8071 140.248 2 38 994 TC 1 20 63
1979273N11145 1979 96 WP MM ROGER 1979-10-07 12:00:00 MX 34.6400 141.380 992 tokyo main 112 112 _OO___________ -1 34.7000 141.300 6 992 0 0 0 34.4000 141.700 2 38 995 28 52
1979273N11145 1979 96 WP MM ROGER 1979-10-07 15:00:00 ET 35.8294 142.754 main 171 171 _P____________ -1 35.8294 142.754 6 992 0 0 2 32 42
1979273N11145 1979 96 WP MM ROGER 1979-10-07 18:00:00 ET 37.0000 144.000 992 tokyo main 262 256 _O____________ -1 37.0000 144.000 6 992 0 0 0 24 36
1979273N11145 1979 96 WP MM ROGER 1979-10-07 21:00:00 ET 37.7950 144.572 main 276 272 _P____________ -1 37.7950 144.572 6 992 0 0 16 34
1979273N11145 1979 96 WP MM ROGER 1979-10-08 00:00:00 ET 38.3000 145.100 992 tokyo main 291 291 _O____________ -1 38.3000 145.100 6 992 0 0 0 16 62
1979273N11145 1979 96 WP MM ROGER 1979-10-08 03:00:00 ET 38.5363 146.336 main 378 378 _P____________ -1 38.5363 146.336 6 992 0 0 20 81
1979273N11145 1979 96 WP MM ROGER 1979-10-08 06:00:00 ET 38.6000 147.600 992 tokyo main 483 483 _O____________ -1 38.6000 147.600 6 992 0 0 0 16 84
1979273N11145 1979 96 WP MM ROGER 1979-10-08 09:00:00 ET 38.7055 148.363 main 549 549 _P____________ -1 38.7055 148.363 6 992 0 0 10 79
1979273N11145 1979 96 WP MM ROGER 1979-10-08 12:00:00 ET 38.8000 148.900 992 tokyo main 566 565 _O____________ -1 38.8000 148.900 6 992 0 0 0 8 75
1979273N11145 1979 96 WP MM ROGER 1979-10-08 15:00:00 ET 38.9219 149.415 main 578 578 _P____________ -1 38.9219 149.415 6 992 0 0 8 76
1979273N11145 1979 96 WP MM ROGER 1979-10-08 18:00:00 ET 39.0000 149.900 992 tokyo main 594 594 _O____________ -1 39.0000 149.900 6 992 0 0 0 7 83
1979273N11145 1979 96 WP MM ROGER 1979-10-08 21:00:00 ET 39.0086 150.374 main 620 620 _P____________ -1 39.0086 150.374 6 992 0 0 9 97
1979273N11145 1979 96 WP MM ROGER 1979-10-09 00:00:00 ET 38.9000 151.000 992 tokyo main 663 663 _O____________ -1 38.9000 151.000 6 992 0 0 0 13 107
1979273N11145 1979 96 WP MM ROGER 1979-10-09 03:00:00 ET 38.6452 151.918 main 740 740 _P____________ -1 38.6452 151.918 6 993 0 0 17 111
1979273N11145 1979 96 WP MM ROGER 1979-10-09 06:00:00 ET 38.3000 153.000 994 tokyo main 832 832 _O____________ -1 38.3000 153.000 6 994 0 0 0 18 110
1979273N11145 1979 96 WP MM ROGER 1979-10-09 09:00:00 ET 38.0026 154.113 main 919 919 _P____________ -1 38.0026 154.113 6 996 0 0 19 112
1979273N11145 1979 96 WP MM ROGER 1979-10-09 12:00:00 ET 37.6000 155.200 998 tokyo main 999 999 _O____________ -1 37.6000 155.200 6 998 0 0 0 19 122
1979273N11145 1979 96 WP MM ROGER 1979-10-09 15:00:00 ET 36.9932 156.114 main 1094 1094 _P____________ -1 36.9932 156.114 6 1000 0 0 19 132
1979273N11145 1979 96 WP MM ROGER 1979-10-09 18:00:00 ET 36.3000 157.000 1002 tokyo main 1200 1200 _O____________ -1 36.3000 157.000 6 1002 0 0 0 20 135
1979273N11145 1979 96 WP MM ROGER 1979-10-09 21:00:00 ET 35.5499 157.912 main 1317 1317 _P____________ -1 35.5499 157.912 6 1005 0 0 21 129
1979273N11145 1979 96 WP MM ROGER 1979-10-10 00:00:00 ET 35.0000 159.000 1008 tokyo main 1415 1415 _O____________ -1 35.0000 159.000 6 1008 0 0 0 21 106
1979273N11145 1979 96 WP MM ROGER 1979-10-10 03:00:00 ET 34.9781 160.417 main 1483 1483 _P____________ -1 34.9781 160.417 6 1008 0 0 25 90
1979273N11145 1979 96 WP MM ROGER 1979-10-10 06:00:00 ET 35.0000 162.000 1008 tokyo main 1568 1568 _O____________ -1 35.0000 162.000 6 1008 0 0 0 25 101
1979273N11145 1979 96 WP MM ROGER 1979-10-10 09:00:00 ET 34.4951 163.431 main 1688 1688 _P____________ -1 34.4951 163.431 6 1010 0 0 27 112
1979273N11145 1979 96 WP MM ROGER 1979-10-10 12:00:00 ET 34.0000 165.000 1012 tokyo main 1822 1822 _O____________ -1 34.0000 165.000 6 1012 0 0 0 29 102
1979273N11145 1979 96 WP MM ROGER 1979-10-10 15:00:00 ET 33.8845 166.893 main 1942 1942 _P____________ -1 33.8845 166.893 6 1012 0 0 33 90
1979273N11145 1979 96 WP MM ROGER 1979-10-10 18:00:00 ET 34.0000 169.000 1012 tokyo main 2065 _O____________ -1 34.0000 169.000 6 1012 0 0 0 35 86

デジタル台風データ・検索

IBTrACS Databaseについて

本データベースは、米国NOAAが公開する1842年以降の世界の熱帯低気圧のベストトラックデータアーカイブInternational Best Track Archive for Climate Stewardship (IBTrACS)を、ウェブで閲覧しやすい形式に変換したものです。

最終更新日:2021-10-21